createdAt,value
2019-02-19T00:00:56.464Z,26.80
2019-02-19T00:03:26.103Z,28.37
2019-02-19T00:05:55.712Z,28.70
2019-02-19T00:08:25.384Z,28.20
2019-02-19T00:10:54.936Z,29.37
2019-02-19T00:13:24.493Z,32.80
2019-02-19T00:15:54.075Z,29.10
2019-02-19T00:18:23.752Z,27.07
2019-02-19T00:20:53.399Z,26.53
2019-02-19T00:23:23.060Z,27.93
2019-02-19T00:25:52.688Z,27.70
2019-02-19T00:28:22.207Z,25.17
2019-02-19T00:30:51.818Z,26.77
2019-02-19T00:33:21.415Z,25.80
2019-02-19T00:35:50.973Z,24.97
2019-02-19T00:38:20.616Z,24.63
2019-02-19T00:40:50.295Z,25.60
2019-02-19T00:43:20.667Z,29.70
2019-02-19T00:45:50.317Z,26.23
2019-02-19T00:48:19.877Z,22.97
2019-02-19T00:50:49.545Z,22.93
2019-02-19T00:53:19.136Z,23.63
2019-02-19T00:55:48.687Z,23.67
2019-02-19T00:58:18.464Z,22.30
2019-02-19T01:00:48.186Z,24.00
2019-02-19T01:03:17.779Z,23.37
2019-02-19T01:05:47.349Z,22.43
2019-02-19T01:08:16.993Z,21.97
2019-02-19T01:10:46.658Z,20.70
2019-02-19T01:13:16.218Z,21.33
2019-02-19T01:15:45.954Z,25.77
2019-02-19T01:18:15.574Z,24.43
2019-02-19T01:20:45.184Z,21.27
2019-02-19T01:23:14.803Z,23.30
2019-02-19T01:25:44.382Z,23.87
2019-02-19T01:28:13.901Z,24.70
2019-02-19T01:30:43.595Z,25.90
2019-02-19T01:33:13.169Z,24.20
2019-02-19T01:35:42.790Z,24.77
2019-02-19T01:38:12.326Z,23.17
2019-02-19T01:40:41.951Z,24.40
2019-02-19T01:43:11.489Z,21.07
2019-02-19T01:45:41.137Z,21.90
2019-02-19T01:48:10.662Z,19.90
2019-02-19T01:50:40.201Z,19.80
2019-02-19T01:53:09.839Z,17.60
2019-02-19T01:55:39.402Z,20.10
2019-02-19T01:58:08.932Z,20.50
2019-02-19T02:00:38.489Z,19.90
2019-02-19T02:03:08.127Z,20.43
2019-02-19T02:05:37.669Z,23.10
2019-02-19T02:08:07.378Z,22.60
2019-02-19T02:10:37.077Z,24.13
2019-02-19T02:13:06.651Z,21.30
2019-02-19T02:15:42.525Z,24.20
2019-02-19T02:18:07.656Z,20.23
2019-02-19T02:20:37.255Z,22.20
2019-02-19T02:23:06.904Z,22.77
2019-02-19T02:25:36.442Z,24.37
2019-02-19T02:28:06.075Z,21.63
2019-02-19T02:30:35.704Z,19.77
2019-02-19T02:33:05.291Z,18.87
2019-02-19T02:35:34.929Z,17.57
2019-02-19T02:38:04.516Z,18.30
2019-02-19T02:40:34.125Z,17.90
2019-02-19T02:43:03.828Z,17.37
2019-02-19T02:45:33.526Z,17.83
2019-02-19T02:48:03.067Z,19.87
2019-02-19T02:50:32.621Z,18.67
2019-02-19T02:53:02.188Z,18.50
2019-02-19T02:55:31.768Z,18.40
2019-02-19T02:58:01.317Z,19.53
2019-02-19T03:00:30.937Z,18.30
2019-02-19T03:03:00.469Z,19.13
2019-02-19T03:05:30.094Z,20.60
2019-02-19T03:08:02.971Z,20.87
2019-02-19T03:10:32.615Z,19.63
2019-02-19T03:13:02.151Z,20.63
2019-02-19T03:15:31.734Z,21.00
2019-02-19T03:18:01.300Z,21.50
2019-02-19T03:20:31.020Z,22.33
2019-02-19T03:23:00.568Z,20.60
2019-02-19T03:25:30.126Z,21.00
2019-02-19T03:27:59.746Z,20.23
2019-02-19T03:30:29.267Z,21.10
2019-02-19T03:32:58.842Z,21.03
2019-02-19T03:35:28.487Z,21.37
2019-02-19T03:37:58.034Z,22.97
2019-02-19T03:40:27.558Z,20.13
2019-02-19T03:42:57.125Z,22.90
2019-02-19T03:45:26.674Z,23.67
2019-02-19T03:47:56.273Z,24.53
2019-02-19T03:50:25.806Z,25.90
2019-02-19T03:52:55.351Z,29.13
2019-02-19T03:55:24.909Z,29.63
2019-02-19T03:57:54.441Z,26.23
2019-02-19T04:00:23.962Z,27.53
2019-02-19T04:02:53.522Z,26.37
2019-02-19T04:05:23.075Z,24.57
2019-02-19T04:07:52.612Z,26.07
2019-02-19T04:10:22.282Z,27.23
2019-02-19T04:12:51.832Z,26.10
2019-02-19T04:15:21.450Z,25.40
2019-02-19T04:17:50.989Z,33.15
2019-02-19T04:20:20.519Z,36.83
2019-02-19T04:22:50.073Z,31.97
2019-02-19T04:25:19.648Z,25.13
2019-02-19T04:27:49.180Z,25.63
2019-02-19T04:30:18.732Z,26.00
2019-02-19T04:32:48.286Z,25.43
2019-02-19T04:35:17.917Z,32.03
2019-02-19T04:37:47.455Z,25.17
2019-02-19T04:40:17.028Z,25.73
2019-02-19T04:42:46.584Z,24.50
2019-02-19T04:45:16.132Z,24.20
2019-02-19T04:47:45.688Z,23.37
2019-02-19T04:50:15.252Z,22.73
2019-02-19T04:52:44.890Z,22.70
2019-02-19T04:55:14.459Z,24.60
2019-02-19T04:57:44.014Z,21.70
2019-02-19T05:00:13.838Z,27.62
2019-02-19T05:02:43.375Z,25.43
2019-02-19T05:05:12.899Z,27.23
2019-02-19T05:07:42.466Z,23.20
2019-02-19T05:10:12.009Z,24.40
2019-02-19T05:12:41.571Z,23.07
2019-02-19T05:15:11.128Z,26.67
2019-02-19T05:17:40.684Z,26.57
2019-02-19T05:20:10.247Z,28.53
2019-02-19T05:22:39.779Z,26.70
2019-02-19T05:25:09.351Z,27.87
2019-02-19T05:27:38.947Z,26.87
2019-02-19T05:30:08.680Z,25.23
2019-02-19T05:32:38.221Z,25.07
2019-02-19T05:35:07.787Z,24.47
2019-02-19T05:37:37.425Z,27.70
2019-02-19T05:40:07.002Z,40.27
2019-02-19T05:42:36.679Z,32.83
2019-02-19T05:45:06.521Z,29.70
2019-02-19T05:47:36.074Z,34.97
2019-02-19T05:50:05.957Z,41.77
2019-02-19T05:52:35.609Z,37.90
2019-02-19T05:55:05.411Z,31.70
2019-02-19T05:57:34.956Z,38.17
2019-02-19T06:00:04.546Z,37.50
2019-02-19T06:02:34.086Z,39.30
2019-02-19T06:05:05.758Z,40.10
2019-02-19T06:07:35.135Z,42.10
2019-02-19T06:10:05.292Z,42.77
2019-02-19T06:12:34.959Z,45.83
2019-02-19T06:15:05.105Z,44.80
2019-02-19T06:17:34.796Z,66.17
2019-02-19T06:20:04.603Z,47.73
2019-02-19T06:22:34.347Z,48.33
2019-02-19T06:25:03.945Z,45.20
2019-02-19T06:27:33.635Z,47.63
2019-02-19T06:30:03.278Z,44.07
2019-02-19T06:32:32.835Z,40.63
2019-02-19T06:35:02.479Z,43.10
2019-02-19T06:37:32.012Z,44.27
2019-02-19T06:40:01.693Z,38.90
2019-02-19T06:42:31.255Z,39.03
2019-02-19T06:45:00.823Z,37.13
2019-02-19T06:47:30.391Z,36.53
2019-02-19T06:50:00.055Z,35.47
2019-02-19T06:52:29.708Z,37.53
2019-02-19T06:54:59.304Z,33.30
2019-02-19T06:57:29.065Z,35.20
2019-02-19T06:59:58.724Z,35.20
2019-02-19T07:02:47.175Z,30.33
2019-02-19T07:05:21.507Z,28.37
2019-02-19T07:07:51.036Z,40.40
2019-02-19T07:10:20.586Z,18.97
2019-02-19T07:12:50.171Z,19.30
2019-02-19T07:15:19.708Z,17.77
2019-02-19T07:17:49.374Z,19.83
2019-02-19T07:20:19.564Z,20.23
2019-02-19T07:22:49.261Z,24.97
2019-02-19T07:25:18.885Z,28.40
2019-02-19T07:27:48.401Z,32.93
2019-02-19T07:30:18.003Z,31.30
2019-02-19T07:32:47.699Z,42.23
2019-02-19T07:35:17.310Z,39.43
2019-02-19T07:37:46.835Z,32.83
2019-02-19T07:40:17.469Z,34.47
2019-02-19T07:42:47.154Z,35.37
2019-02-19T07:45:16.720Z,39.03
2019-02-19T07:47:46.463Z,32.93
2019-02-19T07:50:16.020Z,32.40
2019-02-19T07:52:45.579Z,30.73
2019-02-19T07:55:15.333Z,26.70
2019-02-19T07:57:44.994Z,20.17
2019-02-19T08:00:14.237Z,18.40
2019-02-19T08:02:43.900Z,20.20
2019-02-19T08:05:13.652Z,20.00
2019-02-19T08:07:43.731Z,17.80
2019-02-19T08:10:13.333Z,16.20
2019-02-19T08:12:42.892Z,12.73
2019-02-19T08:15:12.599Z,11.30
2019-02-19T08:17:42.166Z,12.17
2019-02-19T08:20:15.861Z,11.97
2019-02-19T08:22:43.336Z,12.67
2019-02-19T08:25:12.977Z,13.13
2019-02-19T08:27:42.510Z,12.80
2019-02-19T08:30:12.189Z,14.00
2019-02-19T08:32:41.753Z,17.10
2019-02-19T08:35:11.417Z,16.30
2019-02-19T08:37:40.957Z,21.30
2019-02-19T08:40:10.670Z,22.30
2019-02-19T08:42:40.296Z,24.97
2019-02-19T08:45:10.043Z,23.03
2019-02-19T08:47:42.743Z,20.90
2019-02-19T08:50:11.166Z,22.00
2019-02-19T08:52:40.804Z,23.07
2019-02-19T08:55:10.375Z,22.37
2019-02-19T08:57:40.027Z,20.07
2019-02-19T09:00:10.432Z,25.97
2019-02-19T09:02:40.150Z,24.37
2019-02-19T09:05:09.841Z,22.50
2019-02-19T09:07:39.452Z,23.00
2019-02-19T09:10:09.932Z,20.47
2019-02-19T09:12:39.585Z,23.17
2019-02-19T09:15:11.253Z,28.60
2019-02-19T09:17:40.850Z,29.53
2019-02-19T09:20:10.478Z,29.53
2019-02-19T09:22:40.074Z,29.27
2019-02-19T09:25:09.646Z,28.23
2019-02-19T09:27:39.282Z,27.33
2019-02-19T09:30:10.639Z,23.50
2019-02-19T09:32:40.174Z,24.17
2019-02-19T09:35:09.976Z,25.17
2019-02-19T09:37:39.519Z,22.60
2019-02-19T09:40:09.494Z,20.13
2019-02-19T09:42:39.096Z,21.67
2019-02-19T09:45:08.807Z,19.70
2019-02-19T09:47:38.401Z,19.47
2019-02-19T09:50:08.416Z,20.27
2019-02-19T09:52:38.121Z,19.37
2019-02-19T09:55:07.686Z,18.47
2019-02-19T09:57:37.377Z,17.67
2019-02-19T10:00:08.910Z,17.27
2019-02-19T10:02:38.474Z,17.23
2019-02-19T10:05:09.477Z,15.70
2019-02-19T10:07:39.178Z,18.50
2019-02-19T10:10:11.145Z,17.90
2019-02-19T10:12:40.750Z,17.40
2019-02-19T10:15:11.587Z,15.53
2019-02-19T10:17:41.170Z,19.37
2019-02-19T10:20:10.870Z,16.00
2019-02-19T10:22:40.493Z,15.13
2019-02-19T10:25:11.146Z,17.93
2019-02-19T10:27:40.772Z,18.50
2019-02-19T10:30:12.600Z,19.60
2019-02-19T10:32:42.316Z,17.33
2019-02-19T10:35:12.244Z,18.47
2019-02-19T10:37:41.916Z,17.17
2019-02-19T10:40:13.510Z,19.93
2019-02-19T10:42:43.078Z,18.27
2019-02-19T10:45:15.353Z,19.17
2019-02-19T10:47:44.902Z,21.70
2019-02-19T10:50:14.466Z,19.50
2019-02-19T10:52:44.151Z,18.93
2019-02-19T10:55:13.828Z,17.67
2019-02-19T10:57:43.576Z,15.40
2019-02-19T11:00:16.407Z,16.63
2019-02-19T11:02:46.100Z,14.93
2019-02-19T11:05:15.759Z,18.17
2019-02-19T11:07:45.387Z,17.50
2019-02-19T11:10:14.973Z,15.73
2019-02-19T11:12:44.527Z,15.83
2019-02-19T11:15:14.139Z,15.20
2019-02-19T11:17:43.860Z,15.57
2019-02-19T11:20:13.725Z,16.40
2019-02-19T11:22:43.314Z,15.27
2019-02-19T11:25:13.249Z,15.93
2019-02-19T11:27:42.782Z,15.83
2019-02-19T11:30:14.674Z,15.40
2019-02-19T11:32:44.331Z,14.20
2019-02-19T11:35:13.915Z,15.20
2019-02-19T11:37:43.518Z,13.70
2019-02-19T11:40:14.028Z,16.77
2019-02-19T11:42:43.620Z,14.33
2019-02-19T11:45:14.161Z,14.33
2019-02-19T11:47:43.926Z,14.23
2019-02-19T11:50:13.537Z,14.17
2019-02-19T11:52:43.244Z,15.60
2019-02-19T11:55:13.442Z,15.30
2019-02-19T11:57:42.974Z,13.90
2019-02-19T12:00:16.187Z,13.90
2019-02-19T12:02:45.813Z,14.47
2019-02-19T12:05:15.426Z,12.87
2019-02-19T12:07:44.978Z,13.70
2019-02-19T12:10:14.599Z,11.70
2019-02-19T12:12:44.195Z,12.73
2019-02-19T12:15:14.037Z,14.00
2019-02-19T12:17:43.586Z,12.67
2019-02-19T12:20:13.175Z,12.83
2019-02-19T12:22:42.729Z,14.00
2019-02-19T12:25:12.307Z,14.67
2019-02-19T12:27:41.974Z,15.40
2019-02-19T12:30:13.037Z,18.47
2019-02-19T12:32:42.587Z,14.17
2019-02-19T12:35:12.125Z,15.23
2019-02-19T12:37:41.689Z,16.27
2019-02-19T12:40:11.627Z,14.87
2019-02-19T12:42:41.262Z,15.73
2019-02-19T12:45:11.592Z,16.50
2019-02-19T12:47:41.272Z,14.50
2019-02-19T12:50:12.245Z,13.07
2019-02-19T12:52:41.874Z,12.40
2019-02-19T12:55:11.849Z,11.80
2019-02-19T12:57:41.400Z,11.87
2019-02-19T13:00:13.279Z,11.80
2019-02-19T13:02:44.123Z,11.20
2019-02-19T13:05:14.200Z,10.27
2019-02-19T13:07:43.833Z,10.93
2019-02-19T13:10:13.369Z,10.77
2019-02-19T13:12:42.934Z,8.70
2019-02-19T13:15:13.934Z,9.40
2019-02-19T13:17:43.564Z,9.80
2019-02-19T13:20:13.965Z,10.60
2019-02-19T13:22:43.645Z,9.20
2019-02-19T13:25:13.365Z,10.87
2019-02-19T13:27:42.998Z,11.03
2019-02-19T13:30:14.417Z,9.07
2019-02-19T13:32:43.900Z,9.37
2019-02-19T13:35:13.841Z,9.40
2019-02-19T13:37:43.496Z,8.93
2019-02-19T13:40:13.493Z,8.07
2019-02-19T13:42:43.139Z,7.60
2019-02-19T13:45:13.293Z,8.53
2019-02-19T13:47:42.860Z,9.07
2019-02-19T13:50:15.154Z,8.47
2019-02-19T13:52:52.431Z,10.07
2019-02-19T13:55:25.229Z,11.03
2019-02-19T13:57:54.886Z,8.90
2019-02-19T14:00:25.525Z,8.50
2019-02-19T14:02:55.094Z,7.80
2019-02-19T14:05:24.795Z,7.97
2019-02-19T14:07:54.491Z,8.80
2019-02-19T14:10:24.115Z,8.17
2019-02-19T14:12:53.677Z,8.20
2019-02-19T14:15:47.791Z,8.53
2019-02-19T14:18:21.982Z,11.23
2019-02-19T14:21:14.678Z,8.70
2019-02-19T14:24:01.511Z,6.87
2019-02-19T14:26:52.643Z,7.93
2019-02-19T14:29:41.919Z,8.20
2019-02-19T14:32:28.997Z,8.57
2019-02-19T14:35:15.717Z,9.03
2019-02-19T14:38:04.070Z,10.80
2019-02-19T14:40:51.124Z,14.20
2019-02-19T14:43:38.179Z,14.40
2019-02-19T14:46:25.313Z,14.70
2019-02-19T14:49:13.754Z,13.87
2019-02-19T14:52:00.965Z,15.40
2019-02-19T14:55:01.683Z,15.97
2019-02-19T14:57:42.984Z,19.90
2019-02-19T15:00:30.303Z,18.83
2019-02-19T15:03:17.375Z,19.40
2019-02-19T15:06:13.176Z,19.63
2019-02-19T15:08:55.045Z,24.33
2019-02-19T15:11:41.157Z,27.67
2019-02-19T15:14:38.466Z,23.30
2019-02-19T15:17:25.448Z,20.13
2019-02-19T15:20:28.928Z,22.33
2019-02-19T15:23:15.799Z,22.73
2019-02-19T15:26:04.209Z,24.47
2019-02-19T15:28:55.348Z,23.13
2019-02-19T15:31:43.703Z,20.73
2019-02-19T15:34:47.355Z,23.73
2019-02-19T15:37:29.433Z,23.33
2019-02-19T15:40:17.825Z,23.67
2019-02-19T15:43:09.041Z,22.80
2019-02-19T15:46:12.562Z,24.47
2019-02-19T15:48:59.709Z,26.50
2019-02-19T15:51:46.661Z,28.53
2019-02-19T15:54:24.973Z,30.43
2019-02-19T15:57:16.199Z,31.70
2019-02-19T16:00:13.648Z,34.50
2019-02-19T16:02:57.712Z,41.50
2019-02-19T16:05:37.026Z,40.27
2019-02-19T16:08:36.259Z,67.60
2019-02-19T16:11:30.904Z,38.80
2019-02-19T16:14:18.094Z,48.70
2019-02-19T16:17:18.609Z,52.27
2019-02-19T16:20:12.732Z,52.20
2019-02-19T16:22:52.102Z,46.40
2019-02-19T16:25:35.679Z,59.30
2019-02-19T16:28:13.813Z,64.63
2019-02-19T16:31:14.121Z,78.93
2019-02-19T16:34:05.583Z,93.73
2019-02-19T16:36:46.219Z,75.93
2019-02-19T16:39:32.535Z,71.30
2019-02-19T16:42:20.929Z,74.47
2019-02-19T16:44:57.460Z,72.50
2019-02-19T16:47:45.941Z,73.30
2019-02-19T16:50:37.201Z,75.93
2019-02-19T16:53:28.367Z,69.43
2019-02-19T16:56:15.611Z,71.70
2019-02-19T16:59:22.293Z,66.67
2019-02-19T17:02:05.523Z,64.90
2019-02-19T17:04:54.147Z,69.20
2019-02-19T17:07:41.076Z,73.10
2019-02-19T17:10:41.629Z,79.03
2019-02-19T17:13:24.953Z,80.00
2019-02-19T17:16:06.454Z,96.50
2019-02-19T17:18:57.831Z,103.77
2019-02-19T17:21:44.903Z,98.90
2019-02-19T17:24:42.612Z,82.37
2019-02-19T17:27:34.353Z,103.73
2019-02-19T17:30:22.933Z,85.07
2019-02-19T17:33:09.760Z,66.30
2019-02-19T17:36:13.288Z,58.67
2019-02-19T17:38:55.960Z,85.37
2019-02-19T17:41:50.247Z,76.40
2019-02-19T17:44:37.466Z,79.13
2019-02-19T17:47:35.176Z,74.90
2019-02-19T17:50:12.036Z,79.17
2019-02-19T17:53:01.087Z,80.57
2019-02-19T17:55:46.382Z,80.80
2019-02-19T17:58:40.887Z,79.57
2019-02-19T18:01:16.088Z,95.47
2019-02-19T18:04:16.811Z,89.73
2019-02-19T18:07:14.371Z,80.53
2019-02-19T18:10:14.930Z,84.73
2019-02-19T18:13:01.338Z,63.63
2019-02-19T18:15:59.141Z,71.97
2019-02-19T18:18:59.860Z,89.13
2019-02-19T18:21:29.432Z,97.40
2019-02-19T18:23:59.065Z,91.13
2019-02-19T18:26:28.674Z,86.97
2019-02-19T18:28:58.392Z,80.80
2019-02-19T18:31:28.074Z,74.00
2019-02-19T18:33:57.776Z,74.20
2019-02-19T18:36:27.491Z,65.40
2019-02-19T18:38:57.204Z,65.03
2019-02-19T18:41:26.864Z,65.33
2019-02-19T18:43:56.406Z,63.60
2019-02-19T18:46:25.997Z,65.57
2019-02-19T18:48:55.570Z,60.83
2019-02-19T18:51:25.121Z,56.30
2019-02-19T18:53:54.774Z,55.17
2019-02-19T18:56:24.320Z,54.70
2019-02-19T18:58:53.901Z,59.57
2019-02-19T19:01:23.457Z,52.67
2019-02-19T19:03:52.985Z,54.57
2019-02-19T19:06:22.574Z,102.07
2019-02-19T19:08:52.348Z,68.63
2019-02-19T19:11:21.990Z,61.40
2019-02-19T19:13:51.530Z,54.20
2019-02-19T19:16:21.202Z,73.60
2019-02-19T19:18:50.839Z,85.10
2019-02-19T19:21:20.388Z,61.70
2019-02-19T19:23:50.042Z,83.17
2019-02-19T19:26:19.621Z,67.63
2019-02-19T19:28:49.200Z,66.57
2019-02-19T19:31:18.774Z,86.43
2019-02-19T19:33:48.320Z,72.43
2019-02-19T19:36:17.888Z,113.13
2019-02-19T19:38:47.439Z,67.00
2019-02-19T19:41:17.065Z,63.80
2019-02-19T19:43:46.593Z,60.73
2019-02-19T19:46:16.135Z,63.33
2019-02-19T19:48:46.057Z,52.30
2019-02-19T19:51:17.414Z,50.23
2019-02-19T19:53:47.291Z,54.40
2019-02-19T19:56:16.877Z,53.03
2019-02-19T19:58:46.626Z,46.90
2019-02-19T20:01:16.246Z,50.20
2019-02-19T20:03:45.831Z,42.67
2019-02-19T20:06:15.469Z,54.93
2019-02-19T20:08:45.083Z,49.23
2019-02-19T20:11:14.672Z,51.63
2019-02-19T20:13:44.243Z,47.73
2019-02-19T20:16:13.951Z,47.07
2019-02-19T20:18:43.497Z,45.17
2019-02-19T20:21:13.258Z,45.20
2019-02-19T20:23:42.827Z,51.83
2019-02-19T20:26:12.419Z,55.30
2019-02-19T20:28:42.018Z,44.80
2019-02-19T20:31:11.655Z,46.10
2019-02-19T20:33:41.304Z,45.27
2019-02-19T20:36:10.936Z,43.50
2019-02-19T20:38:40.525Z,43.67
2019-02-19T20:41:10.131Z,51.30
2019-02-19T20:43:39.722Z,50.40
2019-02-19T20:46:11.020Z,50.00
2019-02-19T20:48:41.997Z,51.47
2019-02-19T20:51:13.465Z,60.47
2019-02-19T20:53:43.212Z,57.00
2019-02-19T20:56:12.940Z,53.83
2019-02-19T20:58:42.815Z,71.83
2019-02-19T21:01:12.664Z,42.00
2019-02-19T21:03:44.105Z,50.27
2019-02-19T21:06:14.137Z,45.67
2019-02-19T21:08:43.913Z,47.90
2019-02-19T21:11:14.257Z,86.70
2019-02-19T21:13:44.049Z,45.80
2019-02-19T21:16:13.802Z,47.10
2019-02-19T21:18:43.671Z,59.70
2019-02-19T21:21:13.467Z,43.77
2019-02-19T21:23:43.204Z,45.57
2019-02-19T21:26:12.916Z,43.47
2019-02-19T21:28:42.807Z,48.17
2019-02-19T21:31:12.576Z,73.90
2019-02-19T21:33:42.435Z,62.83
2019-02-19T21:36:12.162Z,45.30
2019-02-19T21:38:41.987Z,50.17
2019-02-19T21:41:11.727Z,57.43
2019-02-19T21:43:41.587Z,46.13
2019-02-19T21:46:11.365Z,44.93
2019-02-19T21:48:47.940Z,41.47
2019-02-19T21:51:12.811Z,42.90
2019-02-19T21:53:42.503Z,44.20
2019-02-19T21:56:12.297Z,41.43
2019-02-19T21:58:42.090Z,39.00
2019-02-19T22:01:11.838Z,40.30
2019-02-19T22:03:41.618Z,42.47
2019-02-19T22:06:11.436Z,40.07
2019-02-19T22:08:41.379Z,42.53
2019-02-19T22:11:11.240Z,41.30
2019-02-19T22:13:41.005Z,40.27
2019-02-19T22:16:10.853Z,41.20
2019-02-19T22:18:40.695Z,37.37
2019-02-19T22:21:29.290Z,38.13
2019-02-19T22:23:59.093Z,38.17
2019-02-19T22:26:28.913Z,30.47
2019-02-19T22:28:58.656Z,34.20
2019-02-19T22:31:28.533Z,29.90
2019-02-19T22:33:58.421Z,27.40
2019-02-19T22:36:28.119Z,29.20
2019-02-19T22:38:58.181Z,31.67
2019-02-19T22:41:27.927Z,30.93
2019-02-19T22:43:57.744Z,38.93
2019-02-19T22:46:27.589Z,65.03
2019-02-19T22:48:57.424Z,46.30
2019-02-19T22:51:27.223Z,46.10
2019-02-19T22:54:28.211Z,39.33
2019-02-19T22:56:58.043Z,37.33
2019-02-19T22:59:27.907Z,44.57
2019-02-19T23:02:02.432Z,39.77
2019-02-19T23:04:32.445Z,36.50
2019-02-19T23:07:02.331Z,33.23
2019-02-19T23:09:32.105Z,31.20
2019-02-19T23:12:01.962Z,35.37
2019-02-19T23:14:31.774Z,42.07
2019-02-19T23:17:01.580Z,38.70
2019-02-19T23:19:31.352Z,46.07
2019-02-19T23:22:01.121Z,54.97
2019-02-19T23:24:30.918Z,50.57
2019-02-19T23:27:00.758Z,33.53
2019-02-19T23:29:30.624Z,36.70
2019-02-19T23:32:00.454Z,34.70
2019-02-19T23:34:30.288Z,47.20
2019-02-19T23:37:11.740Z,49.47
2019-02-19T23:39:43.861Z,46.37
2019-02-19T23:42:12.949Z,34.27
2019-02-19T23:44:42.681Z,29.37
2019-02-19T23:47:12.409Z,30.80
2019-02-19T23:49:42.136Z,34.43
2019-02-19T23:52:11.905Z,32.77
2019-02-19T23:54:41.686Z,36.97
2019-02-19T23:57:11.382Z,38.07
2019-02-19T23:59:41.141Z,38.57
